createdAt,value
2023-09-17T00:00:39.887Z,100722.72
2023-09-17T00:03:06.666Z,100726.41
2023-09-17T00:05:33.412Z,100728.00
2023-09-17T00:07:59.967Z,100727.09
2023-09-17T00:10:27.131Z,100727.78
2023-09-17T00:12:56.033Z,100721.56
2023-09-17T00:15:24.075Z,100729.72
2023-09-17T00:17:50.687Z,100727.84
2023-09-17T00:20:17.339Z,100719.81
2023-09-17T00:22:43.949Z,100717.34
2023-09-17T00:25:11.345Z,100717.53
2023-09-17T00:27:38.195Z,100721.28
2023-09-17T00:30:05.188Z,100716.63
2023-09-17T00:32:31.759Z,100725.06
2023-09-17T00:34:58.366Z,100719.38
2023-09-17T00:37:24.933Z,100714.81
2023-09-17T00:39:51.637Z,100716.75
2023-09-17T00:42:18.267Z,100714.53
2023-09-17T00:44:44.832Z,100721.41
2023-09-17T00:47:11.748Z,100717.25
2023-09-17T00:49:38.562Z,100712.31
2023-09-17T00:52:16.674Z,100712.72
2023-09-17T00:54:45.610Z,100711.44
2023-09-17T00:57:13.193Z,100713.00
2023-09-17T00:59:40.421Z,100718.09
2023-09-17T01:02:07.117Z,100720.84
2023-09-17T01:04:34.220Z,100718.72
2023-09-17T01:07:01.369Z,100715.38
2023-09-17T01:09:29.866Z,100708.44
2023-09-17T01:11:57.175Z,100702.47
2023-09-17T01:14:23.832Z,100696.56
2023-09-17T01:16:51.039Z,100699.00
2023-09-17T01:19:25.308Z,100692.78
2023-09-17T01:22:03.550Z,100697.25
2023-09-17T01:24:44.190Z,100689.84
2023-09-17T01:27:13.980Z,100684.41
2023-09-17T01:29:42.725Z,100685.00
2023-09-17T01:32:11.484Z,100671.19
2023-09-17T01:34:41.259Z,100672.34
2023-09-17T01:37:35.536Z,100672.31
2023-09-17T01:40:12.386Z,100674.94
2023-09-17T01:42:45.426Z,100677.59
2023-09-17T01:45:17.749Z,100674.78
2023-09-17T01:47:47.181Z,100668.84
2023-09-17T01:50:17.071Z,100666.88
2023-09-17T01:52:45.292Z,100665.22
2023-09-17T01:55:13.385Z,100659.28
2023-09-17T01:57:40.799Z,100667.25
2023-09-17T02:00:15.881Z,100668.09
2023-09-17T02:02:50.576Z,100664.59
2023-09-17T02:05:18.408Z,100670.75
2023-09-17T02:07:45.760Z,100668.00
2023-09-17T02:10:13.056Z,100665.59
2023-09-17T02:12:40.194Z,100669.03
2023-09-17T02:15:07.639Z,100679.78
2023-09-17T02:17:34.455Z,100669.28
2023-09-17T02:20:01.093Z,100682.28
2023-09-17T02:22:28.056Z,100674.56
2023-09-17T02:24:55.062Z,100673.00
2023-09-17T02:27:21.887Z,100670.44
2023-09-17T02:29:48.545Z,100681.09
2023-09-17T02:32:15.179Z,100675.09
2023-09-17T02:34:41.993Z,100675.16
2023-09-17T02:37:08.653Z,100674.44
2023-09-17T02:39:36.615Z,100677.19
2023-09-17T02:42:04.330Z,100675.41
2023-09-17T02:44:30.910Z,100673.56
2023-09-17T02:46:57.688Z,100676.16
2023-09-17T02:49:24.866Z,100668.28
2023-09-17T02:51:52.069Z,100670.16
2023-09-17T02:54:18.678Z,100666.75
2023-09-17T02:56:45.297Z,100664.19
2023-09-17T02:59:12.331Z,100662.59
2023-09-17T03:01:39.553Z,100662.59
2023-09-17T03:04:06.793Z,100657.41
2023-09-17T03:06:34.562Z,100665.22
2023-09-17T03:09:02.416Z,100669.44
2023-09-17T03:11:29.556Z,100668.44
2023-09-17T03:14:00.540Z,100669.28
2023-09-17T03:16:27.269Z,100673.56
2023-09-17T03:18:53.906Z,100671.81
2023-09-17T03:21:20.869Z,100661.16
2023-09-17T03:23:47.469Z,100658.63
2023-09-17T03:26:14.134Z,100649.00
2023-09-17T03:28:40.797Z,100648.22
2023-09-17T03:31:07.566Z,100643.06
2023-09-17T03:33:37.218Z,100646.59
2023-09-17T03:36:04.645Z,100644.81
2023-09-17T03:38:31.467Z,100651.03
2023-09-17T03:41:00.463Z,100643.19
2023-09-17T03:43:28.588Z,100639.22
2023-09-17T03:45:55.231Z,100647.78
2023-09-17T03:48:22.837Z,100644.25
2023-09-17T03:50:50.460Z,100646.00
2023-09-17T03:53:17.572Z,100637.19
2023-09-17T03:55:46.054Z,100648.72
2023-09-17T03:58:13.438Z,100636.47
2023-09-17T04:00:43.353Z,100640.03
2023-09-17T04:03:10.159Z,100639.00
2023-09-17T04:05:37.476Z,100644.47
2023-09-17T04:08:04.474Z,100651.50
2023-09-17T04:10:31.480Z,100640.91
2023-09-17T04:12:58.131Z,100643.44
2023-09-17T04:15:24.791Z,100632.78
2023-09-17T04:17:52.435Z,100638.09
2023-09-17T04:20:20.502Z,100627.72
2023-09-17T04:22:50.198Z,100627.81
2023-09-17T04:25:20.060Z,100625.03
2023-09-17T04:27:48.846Z,100623.38
2023-09-17T04:30:18.296Z,100632.22
2023-09-17T04:32:47.225Z,100627.72
2023-09-17T04:35:19.704Z,100630.16
2023-09-17T04:37:49.678Z,100628.13
2023-09-17T04:40:19.261Z,100630.00
2023-09-17T04:42:49.973Z,100626.31
2023-09-17T04:45:36.476Z,100637.56
2023-09-17T04:48:10.442Z,100626.31
2023-09-17T04:50:40.279Z,100628.88
2023-09-17T04:53:07.155Z,100625.34
2023-09-17T04:55:34.428Z,100630.81
2023-09-17T04:58:01.337Z,100628.13
2023-09-17T05:00:28.418Z,100627.16
2023-09-17T05:02:55.626Z,100623.16
2023-09-17T05:05:25.034Z,100615.91
2023-09-17T05:07:53.610Z,100613.28
2023-09-17T05:10:20.394Z,100617.47
2023-09-17T05:12:47.210Z,100620.06
2023-09-17T05:15:14.087Z,100618.25
2023-09-17T05:17:42.045Z,100616.41
2023-09-17T05:20:10.018Z,100613.69
2023-09-17T05:22:37.245Z,100617.09
2023-09-17T05:25:05.473Z,100613.72
2023-09-17T05:27:32.616Z,100620.63
2023-09-17T05:30:01.716Z,100620.56
2023-09-17T05:32:29.742Z,100607.97
2023-09-17T05:35:00.989Z,100617.00
2023-09-17T05:37:28.296Z,100625.69
2023-09-17T05:39:55.910Z,100618.50
2023-09-17T05:42:22.545Z,100628.88
2023-09-17T05:44:49.336Z,100626.91
2023-09-17T05:47:15.976Z,100628.38
2023-09-17T05:49:43.042Z,100625.66
2023-09-17T05:52:09.815Z,100632.44
2023-09-17T05:54:37.609Z,100632.50
2023-09-17T05:57:04.468Z,100641.19
2023-09-17T05:59:32.665Z,100640.91
2023-09-17T06:02:00.434Z,100635.50
2023-09-17T06:04:27.644Z,100632.22
2023-09-17T06:06:55.415Z,100632.34
2023-09-17T06:09:22.025Z,100639.06
2023-09-17T06:11:51.152Z,100631.94
2023-09-17T06:14:18.407Z,100637.22
2023-09-17T06:16:56.553Z,100646.97
2023-09-17T06:19:25.567Z,100644.22
2023-09-17T06:21:53.364Z,100642.50
2023-09-17T06:24:20.100Z,100639.81
2023-09-17T06:26:46.846Z,100636.88
2023-09-17T06:29:13.413Z,100635.03
2023-09-17T06:31:41.329Z,100633.41
2023-09-17T06:34:08.675Z,100635.44
2023-09-17T06:36:40.066Z,100638.91
2023-09-17T06:39:07.928Z,100638.75
2023-09-17T06:41:38.040Z,100641.47
2023-09-17T06:44:05.922Z,100635.97
2023-09-17T06:46:33.205Z,100643.63
2023-09-17T06:49:00.203Z,100645.97
2023-09-17T06:51:26.913Z,100643.91
2023-09-17T06:53:53.842Z,100642.06
2023-09-17T06:56:20.887Z,100644.41
2023-09-17T06:58:47.454Z,100638.16
2023-09-17T07:01:14.095Z,100640.63
2023-09-17T07:03:40.706Z,100641.31
2023-09-17T07:06:07.372Z,100631.44
2023-09-17T07:08:34.050Z,100637.66
2023-09-17T07:11:01.869Z,100638.25
2023-09-17T07:13:28.561Z,100635.59
2023-09-17T07:15:55.114Z,100633.44
2023-09-17T07:18:22.488Z,100634.34
2023-09-17T07:20:50.978Z,100631.75
2023-09-17T07:23:17.583Z,100633.41
2023-09-17T07:25:45.935Z,100628.81
2023-09-17T07:28:12.733Z,100631.38
2023-09-17T07:30:39.747Z,100630.53
2023-09-17T07:33:06.862Z,100629.00
2023-09-17T07:35:34.350Z,100631.41
2023-09-17T07:38:01.156Z,100632.00
2023-09-17T07:40:28.403Z,100631.06
2023-09-17T07:42:55.004Z,100634.53
2023-09-17T07:45:21.585Z,100630.13
2023-09-17T07:47:48.187Z,100624.56
2023-09-17T07:50:14.811Z,100631.41
2023-09-17T07:52:42.734Z,100626.94
2023-09-17T07:55:10.501Z,100633.41
2023-09-17T07:57:37.286Z,100628.53
2023-09-17T08:00:05.584Z,100631.94
2023-09-17T08:02:39.793Z,100629.38
2023-09-17T08:05:08.386Z,100629.25
2023-09-17T08:07:35.979Z,100623.81
2023-09-17T08:10:04.704Z,100630.00
2023-09-17T08:12:33.826Z,100630.94
2023-09-17T08:15:00.535Z,100644.41
2023-09-17T08:17:27.233Z,100638.09
2023-09-17T08:19:55.396Z,100632.91
2023-09-17T08:22:23.405Z,100629.00
2023-09-17T08:24:50.008Z,100629.41
2023-09-17T08:27:18.132Z,100636.69
2023-09-17T08:29:45.017Z,100643.00
2023-09-17T08:32:12.280Z,100638.94
2023-09-17T08:34:38.976Z,100633.34
2023-09-17T08:37:05.732Z,100638.63
2023-09-17T08:39:32.647Z,100631.03
2023-09-17T08:42:02.822Z,100637.72
2023-09-17T08:44:32.096Z,100630.69
2023-09-17T08:47:00.099Z,100632.03
2023-09-17T08:49:26.860Z,100627.84
2023-09-17T08:51:58.259Z,100626.63
2023-09-17T08:54:38.462Z,100631.22
2023-09-17T08:57:07.037Z,100640.50
2023-09-17T09:02:08.746Z,100641.78
2023-09-17T09:04:37.199Z,100637.28
2023-09-17T09:07:05.470Z,100627.03
2023-09-17T09:09:33.260Z,100631.25
2023-09-17T09:12:00.169Z,100640.03
2023-09-17T09:14:27.064Z,100630.09
2023-09-17T09:16:53.825Z,100635.97
2023-09-17T09:19:20.421Z,100635.56
2023-09-17T09:21:46.996Z,100635.16
2023-09-17T09:24:13.563Z,100631.28
2023-09-17T09:26:41.255Z,100624.19
2023-09-17T09:29:09.606Z,100622.13
2023-09-17T09:31:36.662Z,100625.22
2023-09-17T09:34:04.241Z,100614.00
2023-09-17T09:36:35.581Z,100622.56
2023-09-17T09:39:03.120Z,100634.00
2023-09-17T09:41:34.490Z,100629.91
2023-09-17T09:44:01.631Z,100626.84
2023-09-17T09:46:29.967Z,100624.47
2023-09-17T09:49:03.592Z,100620.03
2023-09-17T09:51:32.450Z,100617.19
2023-09-17T09:53:59.063Z,100619.09
2023-09-17T09:56:29.684Z,100616.03
2023-09-17T09:58:57.102Z,100610.31
2023-09-17T10:01:24.069Z,100624.81
2023-09-17T10:03:52.004Z,100617.97
2023-09-17T10:06:19.225Z,100613.31
2023-09-17T10:08:47.673Z,100614.22
2023-09-17T10:11:15.846Z,100618.03
2023-09-17T10:13:43.663Z,100613.38
2023-09-17T10:16:10.806Z,100620.41
2023-09-17T10:18:39.650Z,100613.69
2023-09-17T10:21:06.817Z,100613.81
2023-09-17T10:23:35.105Z,100604.91
2023-09-17T10:26:04.338Z,100605.16
2023-09-17T10:28:32.582Z,100611.75
2023-09-17T10:31:01.037Z,100612.00
2023-09-17T10:33:30.856Z,100604.19
2023-09-17T10:36:00.471Z,100602.91
2023-09-17T10:38:28.646Z,100600.00
2023-09-17T10:40:57.593Z,100604.81
2023-09-17T10:43:25.658Z,100595.16
2023-09-17T10:45:56.118Z,100591.91
2023-09-17T10:48:23.055Z,100589.44
2023-09-17T10:50:50.564Z,100586.22
2023-09-17T10:53:17.372Z,100584.03
2023-09-17T10:55:54.291Z,100582.44
2023-09-17T10:58:37.891Z,100580.41
2023-09-17T11:01:07.755Z,100578.91
2023-09-17T11:03:38.451Z,100584.69
2023-09-17T11:06:15.113Z,100579.88
2023-09-17T11:08:46.114Z,100581.38
2023-09-17T11:11:42.050Z,100577.75
2023-09-17T11:14:09.794Z,100591.56
2023-09-17T11:16:37.656Z,100590.38
2023-09-17T11:19:04.572Z,100591.31
2023-09-17T11:21:31.170Z,100591.41
2023-09-17T11:23:57.968Z,100588.13
2023-09-17T11:26:28.357Z,100587.91
2023-09-17T11:28:57.272Z,100592.66
2023-09-17T11:31:27.641Z,100598.38
2023-09-17T11:33:55.767Z,100590.47
2023-09-17T11:36:22.749Z,100581.56
2023-09-17T11:38:49.411Z,100576.22
2023-09-17T11:41:17.501Z,100580.69
2023-09-17T11:43:47.570Z,100576.00
2023-09-17T11:46:15.224Z,100576.69
2023-09-17T11:48:45.382Z,100574.13
2023-09-17T11:51:20.981Z,100574.28
2023-09-17T11:54:01.468Z,100562.97
2023-09-17T11:56:31.440Z,100572.47
2023-09-17T11:59:03.856Z,100566.09
2023-09-17T12:01:44.717Z,100562.13
2023-09-17T12:04:12.595Z,100566.41
2023-09-17T12:06:42.302Z,100566.09
2023-09-17T12:09:18.247Z,100567.44
2023-09-17T12:11:50.061Z,100567.06
2023-09-17T12:14:17.859Z,100561.56
2023-09-17T12:16:47.351Z,100553.91
2023-09-17T12:19:18.479Z,100556.69
2023-09-17T12:21:48.106Z,100557.94
2023-09-17T12:24:27.271Z,100555.16
2023-09-17T12:27:07.138Z,100556.31
2023-09-17T12:29:38.734Z,100565.00
2023-09-17T12:32:06.389Z,100564.38
2023-09-17T12:34:37.275Z,100567.72
2023-09-17T12:37:06.210Z,100563.13
2023-09-17T12:39:32.945Z,100558.50
2023-09-17T12:41:59.506Z,100560.66
2023-09-17T12:44:27.480Z,100561.28
2023-09-17T12:46:54.655Z,100559.69
2023-09-17T12:49:25.125Z,100561.75
2023-09-17T12:51:54.817Z,100569.56
2023-09-17T12:54:22.839Z,100568.63
2023-09-17T12:56:51.055Z,100559.34
2023-09-17T12:59:27.219Z,100562.97
2023-09-17T13:01:55.084Z,100552.59
2023-09-17T13:04:52.375Z,100555.81
2023-09-17T13:07:21.730Z,100546.69
2023-09-17T13:09:50.532Z,100554.97
2023-09-17T13:12:18.709Z,100551.91
2023-09-17T13:14:46.362Z,100551.53
2023-09-17T13:17:13.211Z,100561.03
2023-09-17T13:19:40.207Z,100553.19
2023-09-17T13:22:07.031Z,100553.63
2023-09-17T13:24:35.383Z,100550.34
2023-09-17T13:27:04.521Z,100553.97
2023-09-17T13:29:38.059Z,100545.56
2023-09-17T13:32:12.726Z,100548.78
2023-09-17T13:34:42.179Z,100546.13
2023-09-17T13:37:09.996Z,100548.00
2023-09-17T13:39:44.389Z,100542.75
2023-09-17T13:42:11.527Z,100546.94
2023-09-17T13:44:38.467Z,100547.31
2023-09-17T13:47:21.587Z,100556.09
2023-09-17T13:49:49.362Z,100552.06
2023-09-17T13:52:16.043Z,100540.19
2023-09-17T13:54:43.988Z,100546.91
2023-09-17T13:57:11.228Z,100548.00
2023-09-17T13:59:37.792Z,100547.06
2023-09-17T14:02:05.213Z,100541.97
2023-09-17T14:04:32.102Z,100536.13
2023-09-17T14:06:58.949Z,100539.78
2023-09-17T14:09:25.798Z,100536.00
2023-09-17T14:11:52.574Z,100534.66
2023-09-17T14:14:19.440Z,100534.31
2023-09-17T14:16:47.363Z,100538.00
2023-09-17T14:19:18.981Z,100535.72
2023-09-17T14:21:46.720Z,100531.84
2023-09-17T14:24:13.469Z,100525.13
2023-09-17T14:26:40.414Z,100521.38
2023-09-17T14:29:07.026Z,100521.50
2023-09-17T14:31:33.789Z,100521.22
2023-09-17T14:34:01.110Z,100518.16
2023-09-17T14:36:27.806Z,100516.75
2023-09-17T14:38:56.057Z,100518.88
2023-09-17T14:41:22.764Z,100520.28
2023-09-17T14:43:49.394Z,100521.03
2023-09-17T14:46:15.974Z,100516.75
2023-09-17T14:48:42.541Z,100508.38
2023-09-17T14:51:10.257Z,100513.28
2023-09-17T14:53:36.893Z,100511.22
2023-09-17T14:56:03.543Z,100508.81
2023-09-17T14:58:30.167Z,100503.69
2023-09-17T15:00:56.819Z,100503.47
2023-09-17T15:03:26.242Z,100500.81
2023-09-17T15:05:53.130Z,100500.25
2023-09-17T15:08:19.754Z,100497.84
2023-09-17T15:10:46.559Z,100494.47
2023-09-17T15:13:13.401Z,100501.47
2023-09-17T15:15:40.607Z,100497.75
2023-09-17T15:18:07.480Z,100500.63
2023-09-17T15:20:35.202Z,100491.88
2023-09-17T15:23:01.862Z,100500.53
2023-09-17T15:25:28.513Z,100497.59
2023-09-17T15:27:55.074Z,100504.53
2023-09-17T15:30:23.154Z,100501.56
2023-09-17T15:32:49.922Z,100504.22
2023-09-17T15:35:21.110Z,100497.63
2023-09-17T15:37:48.140Z,100506.63
2023-09-17T15:40:15.006Z,100505.81
2023-09-17T15:42:45.240Z,100514.63
2023-09-17T15:45:12.776Z,100511.31
2023-09-17T15:47:41.518Z,100510.84
2023-09-17T15:50:11.719Z,100506.47
2023-09-17T15:52:38.448Z,100507.91
2023-09-17T15:55:05.675Z,100508.19
2023-09-17T15:57:32.462Z,100504.22
2023-09-17T15:59:59.619Z,100496.00
2023-09-17T16:02:26.465Z,100500.31
2023-09-17T16:04:53.410Z,100502.22
2023-09-17T16:07:20.239Z,100496.69
2023-09-17T16:09:46.958Z,100495.28
2023-09-17T16:12:13.519Z,100499.88
2023-09-17T16:14:40.092Z,100498.38
2023-09-17T16:17:06.878Z,100496.47
2023-09-17T16:19:44.859Z,100501.44
2023-09-17T16:22:12.973Z,100505.16
2023-09-17T16:24:39.546Z,100497.91
2023-09-17T16:27:08.397Z,100492.09
2023-09-17T16:29:35.008Z,100494.00
2023-09-17T16:32:01.719Z,100493.06
2023-09-17T16:34:28.488Z,100492.84
2023-09-17T16:36:55.112Z,100499.88
2023-09-17T16:39:21.725Z,100500.09
2023-09-17T16:41:48.433Z,100502.19
2023-09-17T16:44:15.099Z,100498.09
2023-09-17T16:46:41.664Z,100511.94
2023-09-17T16:49:08.367Z,100512.25
2023-09-17T16:51:37.882Z,100512.16
2023-09-17T16:54:04.731Z,100505.69
2023-09-17T16:56:31.421Z,100501.03
2023-09-17T16:59:02.763Z,100500.81
2023-09-17T17:01:32.646Z,100501.31
2023-09-17T17:03:59.413Z,100496.69
2023-09-17T17:06:26.145Z,100486.78
2023-09-17T17:08:54.678Z,100488.25
2023-09-17T17:11:22.003Z,100494.03
2023-09-17T17:13:48.777Z,100486.69
2023-09-17T17:16:15.486Z,100489.06
2023-09-17T17:18:42.170Z,100485.19
2023-09-17T17:21:09.693Z,100484.75
2023-09-17T17:23:37.204Z,100474.97
2023-09-17T17:26:04.121Z,100475.22
2023-09-17T17:28:30.779Z,100469.22
2023-09-17T17:30:57.502Z,100475.56
2023-09-17T17:33:24.305Z,100468.84
2023-09-17T17:35:50.841Z,100464.63
2023-09-17T17:38:17.812Z,100459.28
2023-09-17T17:40:44.394Z,100466.56
2023-09-17T17:43:10.985Z,100464.16
2023-09-17T17:45:38.752Z,100470.34
2023-09-17T17:48:06.100Z,100472.13
2023-09-17T17:50:32.867Z,100469.84
2023-09-17T17:52:59.609Z,100470.25
2023-09-17T17:55:26.332Z,100475.34
2023-09-17T17:57:53.032Z,100472.06
2023-09-17T18:00:19.715Z,100480.19
2023-09-17T18:02:48.421Z,100477.84
2023-09-17T18:05:15.193Z,100478.22
2023-09-17T18:07:43.845Z,100479.56
2023-09-17T18:10:11.554Z,100473.34
2023-09-17T18:12:39.867Z,100473.47
2023-09-17T18:15:09.379Z,100471.16
2023-09-17T18:17:37.065Z,100474.34
2023-09-17T18:20:04.069Z,100472.00
2023-09-17T18:22:31.348Z,100469.41
2023-09-17T18:24:57.966Z,100472.94
2023-09-17T18:27:25.270Z,100474.09
2023-09-17T18:29:51.944Z,100470.91
2023-09-17T18:32:19.365Z,100464.72
2023-09-17T18:34:46.045Z,100469.25
2023-09-17T18:37:12.687Z,100472.81
2023-09-17T18:39:39.340Z,100463.00
2023-09-17T18:42:06.337Z,100465.28
2023-09-17T18:44:33.630Z,100468.31
2023-09-17T18:47:00.246Z,100460.28
2023-09-17T18:49:27.000Z,100459.59
2023-09-17T18:51:54.556Z,100456.22
2023-09-17T18:54:21.762Z,100455.38
2023-09-17T18:56:48.501Z,100463.13
2023-09-17T18:59:16.529Z,100462.63
2023-09-17T19:01:43.355Z,100456.53
2023-09-17T19:04:10.092Z,100456.09
2023-09-17T19:06:37.240Z,100457.34
2023-09-17T19:09:07.092Z,100460.22
2023-09-17T19:11:34.849Z,100459.56
2023-09-17T19:14:01.932Z,100458.13
2023-09-17T19:16:29.059Z,100456.47
2023-09-17T19:18:55.659Z,100449.50
2023-09-17T19:21:23.840Z,100456.28
2023-09-17T19:23:51.828Z,100445.50
2023-09-17T19:26:20.830Z,100446.59
2023-09-17T19:28:47.848Z,100439.16
2023-09-17T19:31:14.562Z,100436.63
2023-09-17T19:33:41.346Z,100440.16
2023-09-17T19:36:08.048Z,100430.53
2023-09-17T19:38:35.651Z,100432.38
2023-09-17T19:41:03.205Z,100417.84
2023-09-17T19:43:29.890Z,100422.16
2023-09-17T19:45:57.952Z,100428.59
2023-09-17T19:48:25.367Z,100415.41
2023-09-17T19:50:52.042Z,100410.47
2023-09-17T19:53:21.989Z,100411.63
2023-09-17T19:55:48.661Z,100404.25
2023-09-17T19:58:15.657Z,100404.25
2023-09-17T20:00:42.840Z,100405.91
2023-09-17T20:03:09.958Z,100404.91
2023-09-17T20:05:37.073Z,100399.16
2023-09-17T20:08:08.382Z,100395.63
2023-09-17T20:10:37.748Z,100388.09
2023-09-17T20:13:04.453Z,100386.47
2023-09-17T20:15:31.079Z,100379.59
2023-09-17T20:17:59.106Z,100384.97
2023-09-17T20:20:27.049Z,100376.19
2023-09-17T20:22:54.040Z,100375.66
2023-09-17T20:25:22.738Z,100375.03
2023-09-17T20:28:10.255Z,100386.56
2023-09-17T20:30:40.381Z,100384.16
2023-09-17T20:33:08.096Z,100388.03
2023-09-17T20:35:37.819Z,100380.22
2023-09-17T20:38:04.942Z,100377.63
2023-09-17T20:40:31.672Z,100373.53
2023-09-17T20:42:58.889Z,100378.72
2023-09-17T20:45:25.626Z,100377.00
2023-09-17T20:47:54.328Z,100382.19
2023-09-17T20:50:21.338Z,100378.72
2023-09-17T20:52:47.992Z,100368.34
2023-09-17T20:55:14.589Z,100369.06
2023-09-17T20:57:41.163Z,100361.06
2023-09-17T21:00:08.665Z,100366.38
2023-09-17T21:02:35.358Z,100370.19
2023-09-17T21:05:03.441Z,100369.53
2023-09-17T21:07:30.202Z,100370.25
2023-09-17T21:09:57.681Z,100368.50
2023-09-17T21:12:24.936Z,100355.59
2023-09-17T21:14:52.031Z,100356.72
2023-09-17T21:17:19.660Z,100363.03
2023-09-17T21:19:46.717Z,100361.38
2023-09-17T21:22:13.754Z,100364.88
2023-09-17T21:24:40.317Z,100370.97
2023-09-17T21:27:07.150Z,100370.22
2023-09-17T21:29:36.764Z,100364.88
2023-09-17T21:32:03.840Z,100360.00
2023-09-17T21:34:30.784Z,100361.97
2023-09-17T21:36:57.471Z,100359.47
2023-09-17T21:39:32.416Z,100355.41
2023-09-17T21:41:59.307Z,100352.25
2023-09-17T21:44:26.225Z,100351.53
2023-09-17T21:46:56.124Z,100347.00
2023-09-17T21:49:23.055Z,100339.06
2023-09-17T21:51:49.580Z,100338.31
2023-09-17T21:54:16.232Z,100331.41
2023-09-17T21:56:43.289Z,100324.63
2023-09-17T21:59:10.291Z,100327.03
2023-09-17T22:01:36.956Z,100315.47
2023-09-17T22:04:04.133Z,100315.75
2023-09-17T22:06:30.769Z,100317.59
2023-09-17T22:08:57.357Z,100315.06
2023-09-17T22:11:23.886Z,100314.09
2023-09-17T22:13:50.645Z,100317.59
2023-09-17T22:16:17.341Z,100319.38
2023-09-17T22:18:43.947Z,100323.00
2023-09-17T22:21:10.750Z,100319.31
2023-09-17T22:23:37.664Z,100302.84
2023-09-17T22:26:08.654Z,100303.78
2023-09-17T22:28:35.834Z,100307.13
2023-09-17T22:31:12.955Z,100309.13
2023-09-17T22:33:41.283Z,100302.06
2023-09-17T22:36:09.709Z,100308.22
2023-09-17T22:38:39.535Z,100304.72
2023-09-17T22:41:06.245Z,100307.41
2023-09-17T22:43:32.850Z,100309.50
2023-09-17T22:45:59.471Z,100297.78
2023-09-17T22:48:26.411Z,100291.75
2023-09-17T22:50:55.396Z,100287.28
2023-09-17T22:53:22.133Z,100278.63
2023-09-17T22:55:48.724Z,100285.16
2023-09-17T22:58:15.288Z,100287.91
2023-09-17T23:00:44.874Z,100288.78
2023-09-17T23:03:11.711Z,100289.63
2023-09-17T23:05:38.566Z,100291.25
2023-09-17T23:08:05.454Z,100285.69
2023-09-17T23:10:33.024Z,100289.16
2023-09-17T23:12:59.567Z,100278.88
2023-09-17T23:15:28.520Z,100266.56
2023-09-17T23:17:55.164Z,100253.53
2023-09-17T23:20:21.801Z,100255.47
2023-09-17T23:22:48.455Z,100246.88
2023-09-17T23:25:15.541Z,100239.91
2023-09-17T23:27:42.218Z,100240.78
2023-09-17T23:30:09.382Z,100235.44
2023-09-17T23:32:36.145Z,100231.16
2023-09-17T23:35:05.953Z,100229.34
2023-09-17T23:37:32.973Z,100225.78
2023-09-17T23:39:59.702Z,100215.28
2023-09-17T23:42:26.353Z,100220.50
2023-09-17T23:44:53.068Z,100217.75
2023-09-17T23:47:19.730Z,100208.41
2023-09-17T23:49:46.316Z,100206.50
2023-09-17T23:52:12.996Z,100206.91
2023-09-17T23:54:39.638Z,100191.03
2023-09-17T23:57:06.464Z,100187.22
2023-09-17T23:59:40.688Z,100172.28
